Terminal Aerodrome Forecast
Issued by NWS Atlanta, GA

Home | Current Version | Previous Version | Text Only | Print | Product List | Glossary On
Versions: 1 2 3 4 5 6 7 8 9 10 11 12 13 14 15 16 17 18 19 20 21 22 23 24 25 26 27 28 29 30 31 32 33 34 35 36
000
FTUS42 KFFC 242328
TAFATL
TAF
KATL 242328Z 2500/2606 17004KT P6SM FEW070 BKN100
     FM250600 16004KT P6SM VCSH BKN050
     FM250900 15005KT 5SM -RA BR SCT010 OVC025
      TEMPO 2511/2515 2SM SHRA BR BKN010
     FM251700 21008KT P6SM VCSH SCT020 BKN040 PROB30 2520/2602
      VRB15G25KT 2SM TSRA BR BKN015CB
     FM260200 25007KT P6SM SCT050 BKN100=

USA.gov is the U.S. government's official web portal to all federal, state and local government web resources and services.